UUDD/DME METAR and TAF weather

Enter ICAO airport designator
Station Type Date Time Source
UUDD METAR 2019/02/16 17:00 UTC NOAA

UUDD 161700Z 25005MPS 9999 FEW017 02/M02 Q1010 R88/190095 NOSIG


Station Type Date Time Source
UUDD Decoded METAR 2019/02/16 17:00 UTC NOAA

Moscow / Domodedovo, Russia (UUDD) 55-24N 037-54E
Feb 16, 2019 - 12:00 PM EST / 2019.02.16 1700 UTC
Wind: from the WSW (250 degrees) at 11 MPH (10 KT):0
Visibility: greater than 7 mile(s):0
Sky conditions: mostly clear
Temperature: 35 F (2 C)
Windchill: 26 F (-3 C):1
Dew Point: 28 F (-2 C)
Relative Humidity: 74%
Pressure (altimeter): 29.83 in. Hg (1010 hPa)
ob: UUDD 161700Z 25005MPS 9999 FEW017 02/M02 Q1010 R88/190095 NOSIG
cycle: 17

Station Type Date Time Source
UUDD TAF 2019/02/16 18:22 UTC NOAA

TAF UUDD 161657Z 1618/1724 25007G13MPS 8000 BKN011 TX01/1618Z TNM05/1724Z
TEMPO 1618/1706 3100 -SN BR OVC006 PROB40
TEMPO 1700/1706 -FZDZ OVC004
BECMG 1706/1708 31008G15MPS
TEMPO 1710/1724 33013G20MPS 1000 SHSN BLSN FEW006 BKN012CB


Example: see airport list